Airport ID:KP52
Update Time (UTC):07/02/2023 01:54
Wind Speed (Knots):10
Wind Direction (Magnetic):310
Temperature (°C):8
Dew Point (°C):-7
Humidity (%):35
Altimeter (inHg):30.08
Density Altitude (Feet):
Visibility:10+
Clouds (Hundreds of feet):SCT110
Present Weather:
METAR:METAR KP52 070150Z AUTO 32010KT 10SM FEW110 08/M07 A3008 RMK AO2

The data displayed is for advisory purposes only and is not to be used for flight planning or operations.